Time;durP1;ratioP1;P1;durP2;ratioP2;P2;SDS_P1;SDS_P2;PMS_P1;PMS_P2;Temp;Humidity;BMP_temperature;BMP_pressure;BME280_temperature;BME280_humidity;BME280_pressure;Samples;Min_cycle;Max_cycle;Signal;HPM_P1;HPM_P2
2023/06/10 00:00:24;;;;;;;9.80;3.90;;;13.40;99.90;;;;;;5064448;28;20223;-80
2023/06/10 00:02:50;;;;;;;7.83;4.40;;;13.30;99.90;;;;;;5069428;28;20287;-80
2023/06/10 00:05:21;;;;;;;8.70;4.40;;;13.30;99.90;;;;;;5068754;28;20257;-81
2023/06/10 00:07:49;;;;;;;11.43;4.83;;;13.30;99.90;;;;;;5067537;28;20222;-81
2023/06/10 00:10:16;;;;;;;7.03;4.10;;;13.20;99.90;;;;;;5062942;28;20296;-80
2023/06/10 00:12:43;;;;;;;6.17;4.10;;;13.20;99.90;;;;;;5063965;28;20277;-80
2023/06/10 00:15:11;;;;;;;7.17;4.20;;;13.10;99.90;;;;;;5060508;28;20595;-80
2023/06/10 00:17:40;;;;;;;8.27;4.10;;;13.10;99.90;;;;;;5077309;28;20265;-81
2023/06/10 00:20:11;;;;;;;6.37;4.23;;;13.10;99.90;;;;;;5061380;28;20538;-80
2023/06/10 00:22:39;;;;;;;7.73;4.10;;;13.00;99.90;;;;;;5074568;28;20595;-79
2023/06/10 00:25:07;;;;;;;7.57;3.90;;;13.00;99.90;;;;;;5061367;28;20227;-80
2023/06/10 00:27:35;;;;;;;8.63;4.17;;;12.90;99.90;;;;;;5068228;28;20227;-80
2023/06/10 00:30:04;;;;;;;8.03;3.90;;;12.90;99.90;;;;;;5064165;28;20217;-81
2023/06/10 00:32:32;;;;;;;10.67;4.20;;;12.90;99.90;;;;;;5064645;28;20317;-80
2023/06/10 00:35:00;;;;;;;7.27;3.87;;;12.80;99.90;;;;;;5069412;28;20712;-81
2023/06/10 00:37:27;;;;;;;8.27;3.93;;;12.70;99.90;;;;;;5067534;28;20225;-80
2023/06/10 00:39:53;;;;;;;7.93;3.67;;;12.80;99.90;;;;;;5064920;28;20230;-80
2023/06/10 00:42:22;;;;;;;8.97;4.03;;;12.70;99.90;;;;;;5069336;28;20301;-80
2023/06/10 00:44:49;;;;;;;7.30;3.73;;;12.60;99.90;;;;;;5063743;28;20235;-80
2023/06/10 00:47:15;;;;;;;6.13;3.53;;;12.60;99.90;;;;;;5064063;28;20221;-80
2023/06/10 00:49:42;;;;;;;7.50;4.23;;;12.60;99.90;;;;;;5070123;28;20241;-79
2023/06/10 00:52:11;;;;;;;7.97;3.53;;;12.60;99.90;;;;;;5070248;28;20227;-80
2023/06/10 00:54:38;;;;;;;9.03;4.10;;;12.50;99.90;;;;;;5081574;28;20230;-80
2023/06/10 00:57:06;;;;;;;8.90;3.80;;;12.40;99.90;;;;;;5067074;28;20269;-80
2023/06/10 00:59:35;;;;;;;7.90;3.67;;;12.40;99.90;;;;;;5075564;28;20221;-79
2023/06/10 01:02:04;;;;;;;6.63;3.53;;;12.40;99.90;;;;;;5071900;28;20219;-80
2023/06/10 01:04:31;;;;;;;7.03;3.53;;;12.40;99.90;;;;;;5079276;28;20228;-79
2023/06/10 01:07:09;;;;;;;7.73;3.97;;;12.30;99.90;;;;;;5067517;28;20320;-79
2023/06/10 01:09:42;;;;;;;8.13;3.97;;;12.30;99.90;;;;;;5059591;28;20215;-79
2023/06/10 01:12:17;;;;;;;7.60;3.70;;;12.30;99.90;;;;;;5063966;28;20223;-79
2023/06/10 01:14:44;;;;;;;7.50;3.20;;;12.30;99.90;;;;;;5065306;28;20217;-80
2023/06/10 01:17:12;;;;;;;7.03;3.70;;;12.20;99.90;;;;;;5068410;28;20570;-80
2023/06/10 01:19:40;;;;;;;8.47;3.90;;;12.20;99.90;;;;;;5069925;28;20310;-80
2023/06/10 01:22:08;;;;;;;8.40;3.40;;;12.20;99.90;;;;;;5064491;28;20247;-80
2023/06/10 01:24:36;;;;;;;7.87;3.50;;;12.10;99.90;;;;;;5070000;28;20317;-79
2023/06/10 01:27:09;;;;;;;6.23;3.60;;;12.10;99.90;;;;;;5069087;28;20220;-80
2023/06/10 01:29:42;;;;;;;6.17;3.63;;;12.10;99.90;;;;;;5066355;28;20309;-80
2023/06/10 01:32:16;;;;;;;7.10;3.63;;;12.10;99.90;;;;;;5094527;28;20290;-80
2023/06/10 01:34:43;;;;;;;4.67;3.23;;;12.10;99.90;;;;;;5095522;28;20228;-79
2023/06/10 01:37:14;;;;;;;7.53;3.60;;;12.00;99.90;;;;;;5068446;28;20211;-80
2023/06/10 01:39:41;;;;;;;4.83;3.40;;;12.00;99.90;;;;;;5078650;28;20225;-79
2023/06/10 01:42:10;;;;;;;6.90;3.50;;;12.00;99.90;;;;;;5067720;28;20230;-79
2023/06/10 01:44:41;;;;;;;8.03;3.87;;;12.00;99.90;;;;;;5073086;28;20233;-79
2023/06/10 01:47:08;;;;;;;6.57;3.20;;;11.90;99.90;;;;;;5063278;28;20211;-80
2023/06/10 01:49:35;;;;;;;8.83;3.30;;;11.90;99.90;;;;;;5066878;28;20244;-79
2023/06/10 01:52:02;;;;;;;8.07;3.50;;;11.90;99.90;;;;;;5067088;28;20347;-80
2023/06/10 01:54:30;;;;;;;8.83;3.00;;;11.90;99.90;;;;;;5073776;28;20661;-80
2023/06/10 01:56:57;;;;;;;4.80;3.00;;;11.80;99.90;;;;;;5065641;28;20258;-79
2023/06/10 01:59:24;;;;;;;7.10;3.53;;;11.80;99.90;;;;;;5065121;28;20908;-79
2023/06/10 02:01:51;;;;;;;6.90;2.73;;;11.80;99.90;;;;;;5064906;28;20926;-79
2023/06/10 02:04:18;;;;;;;7.30;3.07;;;11.80;99.90;;;;;;5093150;28;20837;-79
2023/06/10 02:06:45;;;;;;;6.57;2.90;;;11.70;99.90;;;;;;5067370;28;20977;-79
2023/06/10 02:09:11;;;;;;;5.87;2.73;;;11.70;99.90;;;;;;5061481;28;20223;-80
2023/06/10 02:11:40;;;;;;;5.70;3.07;;;11.70;99.90;;;;;;5066495;28;20268;-80
2023/06/10 02:14:06;;;;;;;5.63;2.97;;;11.70;99.90;;;;;;5065729;28;20222;-80
2023/06/10 02:16:33;;;;;;;5.80;2.77;;;11.70;99.90;;;;;;5071194;28;20737;-79
2023/06/10 02:19:00;;;;;;;8.13;2.90;;;11.70;99.90;;;;;;5070131;28;20225;-79
2023/06/10 02:21:28;;;;;;;7.60;2.90;;;11.60;99.90;;;;;;5070218;28;20225;-79
2023/06/10 02:23:55;;;;;;;8.73;2.73;;;11.60;99.90;;;;;;5063475;28;20268;-80
2023/06/10 02:26:22;;;;;;;7.13;2.87;;;11.60;99.90;;;;;;5061650;28;20626;-80
2023/06/10 02:28:51;;;;;;;4.73;2.33;;;11.60;99.90;;;;;;5068929;28;20898;-80
2023/06/10 02:31:19;;;;;;;7.60;2.53;;;11.60;99.90;;;;;;5067697;28;20326;-80
2023/06/10 02:33:46;;;;;;;7.43;2.93;;;11.60;99.90;;;;;;5064810;28;20743;-79
2023/06/10 02:36:15;;;;;;;8.27;2.47;;;11.50;99.90;;;;;;5067984;28;20587;-79
2023/06/10 02:38:42;;;;;;;5.67;2.37;;;11.50;99.90;;;;;;5056045;28;20267;-79
2023/06/10 02:41:09;;;;;;;6.33;2.50;;;11.50;99.90;;;;;;5066171;28;20305;-80
2023/06/10 02:43:36;;;;;;;8.27;2.30;;;11.50;99.90;;;;;;5066687;28;20222;-79
2023/06/10 02:46:04;;;;;;;6.80;2.80;;;11.50;99.90;;;;;;5065259;28;20638;-80
2023/06/10 02:48:32;;;;;;;5.23;2.17;;;11.60;99.90;;;;;;5070877;28;20235;-80
2023/06/10 02:50:59;;;;;;;7.43;2.57;;;11.50;99.90;;;;;;5070503;28;20211;-80
2023/06/10 02:53:35;;;;;;;7.57;3.20;;;11.50;99.90;;;;;;5062163;28;20300;-79
2023/06/10 02:56:07;;;;;;;8.33;2.47;;;11.50;99.90;;;;;;5067183;28;20218;-80
2023/06/10 02:58:34;;;;;;;8.27;2.53;;;11.40;99.90;;;;;;5066826;28;20302;-80
2023/06/10 03:01:03;;;;;;;5.03;2.40;;;11.50;99.90;;;;;;5067945;28;20248;-81
2023/06/10 03:03:40;;;;;;;7.43;3.17;;;11.40;99.90;;;;;;5082742;28;20228;-81
2023/06/10 03:06:12;;;;;;;4.20;2.13;;;11.50;99.90;;;;;;5061278;28;20220;-79
2023/06/10 03:08:40;;;;;;;5.17;2.50;;;11.40;99.90;;;;;;5064863;23;20229;-80
2023/06/10 03:11:11;;;;;;;5.70;2.37;;;11.40;99.90;;;;;;5050710;28;20240;-81
2023/06/10 03:13:40;;;;;;;5.77;2.37;;;11.40;99.90;;;;;;5045564;28;20261;-81
2023/06/10 03:16:12;;;;;;;6.03;2.63;;;11.40;99.90;;;;;;5043674;28;20780;-80
2023/06/10 03:18:39;;;;;;;7.27;2.67;;;11.40;99.90;;;;;;5049807;28;20233;-81
2023/06/10 03:21:08;;;;;;;9.03;2.60;;;11.40;99.90;;;;;;5049522;28;20228;-80
2023/06/10 03:23:36;;;;;;;4.53;2.30;;;11.40;99.90;;;;;;5065244;28;20242;-82
2023/06/10 03:26:04;;;;;;;6.03;2.67;;;11.40;99.90;;;;;;5046344;28;20216;-81
2023/06/10 03:28:33;;;;;;;6.67;2.50;;;11.50;99.90;;;;;;5062417;28;20240;-81
2023/06/10 03:31:00;;;;;;;6.53;2.27;;;11.50;99.90;;;;;;5047151;28;20262;-79
2023/06/10 03:33:29;;;;;;;5.40;2.50;;;11.40;99.90;;;;;;5051743;28;20310;-80
2023/06/10 03:35:56;;;;;;;6.57;2.50;;;11.40;99.90;;;;;;5066911;28;20288;-81
2023/06/10 03:38:24;;;;;;;8.17;2.50;;;11.40;99.90;;;;;;5041632;28;20228;-81
2023/06/10 03:40:54;;;;;;;5.77;2.70;;;11.50;99.90;;;;;;5048704;28;20325;-80
2023/06/10 03:43:21;;;;;;;5.97;2.20;;;11.50;99.90;;;;;;5065574;28;20224;-80
2023/06/10 03:45:49;;;;;;;7.10;2.37;;;11.60;99.90;;;;;;5051203;28;20327;-80
2023/06/10 03:48:16;;;;;;;4.20;2.20;;;11.50;99.90;;;;;;5041256;28;20240;-81
2023/06/10 03:50:52;;;;;;;7.00;2.40;;;11.50;99.90;;;;;;5051035;28;20218;-81
2023/06/10 03:53:21;;;;;;;9.57;2.70;;;11.60;99.90;;;;;;5048829;28;20319;-81
2023/06/10 03:55:48;;;;;;;5.43;2.60;;;11.60;99.90;;;;;;5046183;28;20261;-80
2023/06/10 03:58:17;;;;;;;6.90;2.80;;;11.60;99.90;;;;;;5047523;28;20760;-81
2023/06/10 04:00:45;;;;;;;7.80;2.97;;;11.60;99.90;;;;;;5050245;28;20283;-82
2023/06/10 04:03:14;;;;;;;5.60;2.27;;;11.60;99.90;;;;;;5048210;28;20257;-81
2023/06/10 04:05:44;;;;;;;8.60;2.40;;;11.70;99.90;;;;;;5046398;28;20764;-81
2023/06/10 04:08:13;;;;;;;5.83;2.30;;;11.70;99.90;;;;;;5050710;28;20234;-81
2023/06/10 04:10:40;;;;;;;4.47;1.87;;;11.70;99.90;;;;;;5050808;28;20223;-79
2023/06/10 04:13:07;;;;;;;3.60;2.23;;;11.80;99.90;;;;;;5044918;28;20237;-79
2023/06/10 04:15:40;;;;;;;4.87;2.37;;;11.80;99.90;;;;;;5043681;28;20974;-79
2023/06/10 04:18:11;;;;;;;6.37;2.23;;;11.80;99.90;;;;;;5048647;28;20223;-80
2023/06/10 04:20:38;;;;;;;8.57;2.20;;;11.90;99.90;;;;;;5047933;28;20249;-79
2023/06/10 04:23:06;;;;;;;7.33;2.43;;;11.90;99.90;;;;;;5046994;28;21102;-79
2023/06/10 04:25:34;;;;;;;5.70;2.40;;;12.00;99.90;;;;;;5047470;28;20249;-78
2023/06/10 04:28:01;;;;;;;6.87;2.43;;;12.00;99.90;;;;;;5047988;28;20225;-80
2023/06/10 04:30:29;;;;;;;6.80;2.10;;;12.00;99.90;;;;;;5050782;28;20232;-79
2023/06/10 04:32:56;;;;;;;6.00;1.93;;;12.10;99.90;;;;;;5051452;28;20231;-81
2023/06/10 04:35:24;;;;;;;7.10;2.27;;;12.10;99.90;;;;;;5046634;28;20725;-81
2023/06/10 04:37:51;;;;;;;5.77;2.33;;;12.10;99.90;;;;;;5046988;28;20312;-81
2023/06/10 04:40:19;;;;;;;4.73;2.20;;;12.20;99.90;;;;;;5044043;28;20216;-81
2023/06/10 04:42:49;;;;;;;6.77;2.57;;;12.20;99.90;;;;;;5049945;28;20223;-79
2023/06/10 04:45:17;;;;;;;6.33;2.10;;;12.20;99.90;;;;;;5045727;28;20323;-78
2023/06/10 04:47:44;;;;;;;5.53;2.20;;;12.30;99.90;;;;;;5044249;28;20739;-79
2023/06/10 04:50:12;;;;;;;5.60;1.80;;;12.30;99.90;;;;;;5042528;28;20236;-81
2023/06/10 04:52:41;;;;;;;5.50;2.17;;;12.30;99.90;;;;;;5051162;28;20226;-80
2023/06/10 04:55:09;;;;;;;6.70;2.03;;;12.40;99.90;;;;;;5045278;28;20733;-80
2023/06/10 04:57:36;;;;;;;5.73;2.30;;;12.40;99.90;;;;;;5045272;28;20235;-79
2023/06/10 05:00:06;;;;;;;3.83;1.80;;;12.50;99.90;;;;;;5046017;28;20300;-78
2023/06/10 05:02:33;;;;;;;7.50;2.10;;;12.60;99.90;;;;;;5049693;28;20238;-79
2023/06/10 05:05:00;;;;;;;5.90;2.03;;;12.60;99.90;;;;;;5047920;28;20636;-79
2023/06/10 05:07:27;;;;;;;5.00;1.93;;;12.70;99.90;;;;;;5053778;28;20762;-78
2023/06/10 05:09:54;;;;;;;5.80;2.00;;;12.70;99.90;;;;;;5049403;28;20326;-80
2023/06/10 05:12:22;;;;;;;6.57;2.03;;;12.80;99.90;;;;;;5046671;28;20396;-79
2023/06/10 05:14:48;;;;;;;5.77;2.00;;;12.90;99.90;;;;;;5046562;28;20222;-81
2023/06/10 05:17:17;;;;;;;7.47;2.33;;;12.90;99.90;;;;;;5047458;28;20308;-80
2023/06/10 05:19:44;;;;;;;5.57;2.17;;;13.00;99.90;;;;;;5046288;28;20896;-79
2023/06/10 05:22:11;;;;;;;6.97;2.30;;;13.00;99.90;;;;;;5044776;28;20240;-79
2023/06/10 05:24:38;;;;;;;5.07;1.87;;;13.10;99.90;;;;;;5041688;28;20219;-77
2023/06/10 05:27:06;;;;;;;5.67;1.80;;;13.10;99.90;;;;;;5048965;28;20224;-79
2023/06/10 05:29:33;;;;;;;5.83;2.40;;;13.20;99.90;;;;;;5042296;28;20292;-79
2023/06/10 05:32:02;;;;;;;6.73;2.33;;;13.30;99.90;;;;;;5047690;28;20246;-78
2023/06/10 05:34:31;;;;;;;9.37;2.40;;;13.30;99.90;;;;;;5046309;28;20696;-79
2023/06/10 05:36:58;;;;;;;8.17;2.03;;;13.30;99.90;;;;;;5043410;28;20759;-79
2023/06/10 05:39:25;;;;;;;5.70;2.23;;;13.40;99.90;;;;;;5044340;28;20220;-78
2023/06/10 05:41:52;;;;;;;5.77;2.00;;;13.50;99.90;;;;;;5051117;28;20302;-79
2023/06/10 05:44:18;;;;;;;11.83;2.70;;;13.50;99.90;;;;;;5038900;28;20268;-79
2023/06/10 05:46:45;;;;;;;4.87;1.73;;;13.60;99.90;;;;;;5043883;28;20224;-78
2023/06/10 05:49:12;;;;;;;9.23;2.37;;;13.60;99.90;;;;;;5044102;28;20228;-78
2023/06/10 05:51:40;;;;;;;6.07;2.27;;;13.70;99.90;;;;;;5048889;28;20223;-78
2023/06/10 05:54:07;;;;;;;6.03;2.30;;;13.70;99.90;;;;;;5044158;28;20282;-78
2023/06/10 05:56:34;;;;;;;4.53;2.20;;;13.80;99.90;;;;;;5044376;28;20227;-78
2023/06/10 05:59:01;;;;;;;5.40;2.03;;;13.80;99.90;;;;;;5039894;28;20318;-78
2023/06/10 06:01:27;;;;;;;5.43;2.10;;;13.90;99.90;;;;;;5028148;28;20221;-78
2023/06/10 06:03:54;;;;;;;4.73;1.80;;;13.90;99.90;;;;;;5033373;28;20319;-79
2023/06/10 06:06:21;;;;;;;5.53;2.30;;;14.00;99.90;;;;;;5040874;28;20232;-79
2023/06/10 06:08:49;;;;;;;6.67;2.00;;;14.00;99.90;;;;;;5034094;28;20752;-79
2023/06/10 06:11:16;;;;;;;6.33;2.03;;;14.10;99.90;;;;;;5038928;28;20298;-79
2023/06/10 06:13:42;;;;;;;9.47;2.50;;;14.10;99.90;;;;;;5043994;28;20319;-78
2023/06/10 06:16:09;;;;;;;7.83;2.27;;;14.20;99.90;;;;;;5042262;28;20232;-80
2023/06/10 06:18:36;;;;;;;7.67;2.67;;;14.20;99.90;;;;;;5040771;28;20230;-79
2023/06/10 06:21:02;;;;;;;6.73;2.03;;;14.30;99.90;;;;;;5042763;28;20324;-78
2023/06/10 06:23:30;;;;;;;8.13;2.10;;;14.40;99.90;;;;;;5042464;28;20293;-79
2023/06/10 06:25:58;;;;;;;7.47;2.53;;;14.40;99.90;;;;;;5043637;28;20718;-78
2023/06/10 06:28:28;;;;;;;7.70;1.93;;;14.50;99.90;;;;;;5041681;28;20293;-78
2023/06/10 06:30:55;;;;;;;6.20;2.10;;;14.60;99.90;;;;;;5043441;28;20564;-77
2023/06/10 06:33:22;;;;;;;5.03;2.40;;;14.80;99.90;;;;;;5044755;28;20338;-78
2023/06/10 06:35:48;;;;;;;5.97;2.20;;;15.00;99.90;;;;;;5039772;28;20224;-78
2023/06/10 06:38:15;;;;;;;4.13;1.97;;;15.20;99.90;;;;;;5042274;28;20247;-78
2023/06/10 06:40:42;;;;;;;7.38;2.10;;;15.40;99.90;;;;;;5044249;28;20241;-78
2023/06/10 06:43:11;;;;;;;9.45;2.65;;;15.50;99.90;;;;;;5039883;28;20224;-76
2023/06/10 06:45:52;;;;;;;6.72;2.80;;;15.60;99.90;;;;;;5044544;28;20226;-78
2023/06/10 06:48:19;;;;;;;5.65;2.20;;;15.70;99.90;;;;;;5039794;28;20239;-79
2023/06/10 06:50:46;;;;;;;8.70;2.28;;;15.80;99.90;;;;;;5040553;28;20299;-78
2023/06/10 06:53:13;;;;;;;7.68;2.17;;;15.90;99.90;;;;;;5035731;28;20252;-79
2023/06/10 06:55:39;;;;;;;8.52;2.60;;;15.90;99.90;;;;;;5041977;28;20737;-79
2023/06/10 06:58:07;;;;;;;4.95;2.47;;;16.00;99.90;;;;;;5038300;28;20232;-78
2023/06/10 07:00:35;;;;;;;7.47;2.30;;;16.10;99.90;;;;;;5050428;28;20596;-79
2023/06/10 07:03:01;;;;;;;6.05;1.98;;;16.40;99.90;;;;;;5046875;28;20311;-79
2023/06/10 07:05:28;;;;;;;8.57;2.88;;;16.70;99.90;;;;;;5038078;28;20348;-79
2023/06/10 07:07:55;;;;;;;4.90;2.08;;;17.20;99.90;;;;;;5044687;28;20246;-81
2023/06/10 07:10:22;;;;;;;6.35;2.40;;;18.00;99.90;;;;;;5039463;28;22489;-80
2023/06/10 07:12:49;;;;;;;6.38;2.03;;;18.80;99.90;;;;;;5041964;28;20307;-80
2023/06/10 07:15:16;;;;;;;6.03;2.17;;;19.80;99.90;;;;;;5037938;28;20307;-80
2023/06/10 07:17:44;;;;;;;6.68;2.28;;;20.70;99.90;;;;;;5038051;28;20327;-79
2023/06/10 07:20:13;;;;;;;7.28;2.40;;;21.50;99.90;;;;;;5069138;28;20224;-80
2023/06/10 07:22:39;;;;;;;6.97;2.20;;;22.20;99.90;;;;;;5041393;28;20295;-79
2023/06/10 07:25:07;;;;;;;4.88;2.17;;;22.70;99.90;;;;;;5036285;28;20224;-85
2023/06/10 07:27:35;;;;;;;5.65;2.35;;;23.30;98.80;;;;;;5042486;28;20220;-80
2023/06/10 07:30:02;;;;;;;5.97;2.20;;;23.90;98.30;;;;;;5070228;28;20239;-80
2023/06/10 07:32:29;;;;;;;4.97;2.20;;;24.40;97.90;;;;;;5063726;28;20220;-81
2023/06/10 07:34:57;;;;;;;5.32;2.28;;;24.90;97.00;;;;;;5043164;28;20216;-81
2023/06/10 07:37:24;;;;;;;9.95;2.35;;;25.40;94.50;;;;;;5075645;28;20247;-82
2023/06/10 07:39:51;;;;;;;7.13;2.10;;;25.80;94.40;;;;;;5040457;28;20251;-79
2023/06/10 07:42:17;;;;;;;6.15;2.50;;;26.30;93.50;;;;;;5034779;28;20655;-78
2023/06/10 07:44:44;;;;;;;5.30;2.40;;;26.60;92.90;;;;;;5048609;28;20649;-79
2023/06/10 07:47:11;;;;;;;6.40;2.50;;;27.00;92.20;;;;;;5036340;28;20260;-79
2023/06/10 07:49:37;;;;;;;5.03;2.70;;;27.30;91.50;;;;;;5044776;28;20223;-78
2023/06/10 07:52:07;;;;;;;6.63;2.47;;;27.60;90.20;;;;;;5039383;28;20728;-78
2023/06/10 07:54:33;;;;;;;8.15;2.67;;;27.80;87.70;;;;;;5040675;28;20314;-78
2023/06/10 07:57:00;;;;;;;5.20;2.38;;;28.10;87.40;;;;;;5044515;28;20273;-78
2023/06/10 07:59:27;;;;;;;6.00;2.45;;;28.30;86.30;;;;;;5040368;28;20328;-78
2023/06/10 08:01:54;;;;;;;4.88;2.90;;;28.50;84.00;;;;;;5038440;28;20267;-78
2023/06/10 08:04:20;;;;;;;5.93;2.67;;;28.60;83.50;;;;;;5044521;28;20307;-78
2023/06/10 08:06:47;;;;;;;6.30;2.17;;;28.80;82.00;;;;;;5040972;28;20642;-79
2023/06/10 08:09:15;;;;;;;4.70;2.25;;;29.00;81.80;;;;;;5061543;28;20234;-79
2023/06/10 08:11:42;;;;;;;6.22;2.28;;;29.20;80.00;;;;;;5050044;28;20601;-77
2023/06/10 08:14:08;;;;;;;4.72;2.30;;;29.40;80.20;;;;;;5038446;28;21027;-78
2023/06/10 08:16:35;;;;;;;4.90;2.30;;;29.60;78.70;;;;;;5054377;28;20307;-77
2023/06/10 08:19:02;;;;;;;5.68;2.25;;;29.90;77.20;;;;;;5044539;28;20220;-78
2023/06/10 08:21:29;;;;;;;4.07;2.60;;;30.00;76.00;;;;;;5043275;28;20308;-78
2023/06/10 08:23:57;;;;;;;8.10;2.90;;;30.20;74.60;;;;;;5037186;28;20712;-77
2023/06/10 08:26:25;;;;;;;6.45;2.60;;;30.20;73.00;;;;;;5044820;28;20690;-79
2023/06/10 08:28:52;;;;;;;4.30;1.90;;;30.20;72.20;;;;;;5034319;28;20624;-79
2023/06/10 08:31:19;;;;;;;5.82;2.50;;;30.20;72.50;;;;;;5038427;28;20251;-79
2023/06/10 08:33:45;;;;;;;3.38;2.08;;;30.20;72.50;;;;;;5038015;28;20843;-79
2023/06/10 08:36:12;;;;;;;6.05;2.60;;;30.40;72.80;;;;;;5045299;28;20911;-79
2023/06/10 08:38:39;;;;;;;6.32;2.40;;;30.70;72.10;;;;;;5046126;28;20604;-79
2023/06/10 08:41:07;;;;;;;7.15;2.30;;;30.90;71.30;;;;;;5046036;28;20221;-79
2023/06/10 08:43:42;;;;;;;4.40;2.45;;;31.20;70.20;;;;;;5031440;28;20219;-79
2023/06/10 08:46:10;;;;;;;4.63;2.10;;;31.50;69.40;;;;;;5045630;28;20224;-79
2023/06/10 08:48:43;;;;;;;5.80;2.50;;;31.70;69.10;;;;;;5047770;28;20696;-79
2023/06/10 08:51:11;;;;;;;3.72;2.33;;;32.20;67.20;;;;;;5037308;28;20227;-79
2023/06/10 08:53:39;;;;;;;6.25;2.50;;;32.50;65.80;;;;;;5047687;28;20693;-79
2023/06/10 08:56:07;;;;;;;6.43;2.67;;;32.80;64.20;;;;;;5046178;28;20676;-79
2023/06/10 08:58:40;;;;;;;8.90;2.58;;;32.80;63.90;;;;;;5049778;28;20306;-78
2023/06/10 09:01:08;;;;;;;7.40;2.40;;;32.80;63.10;;;;;;5038439;28;20246;-79
2023/06/10 09:03:36;;;;;;;6.05;2.60;;;32.70;62.10;;;;;;5042674;28;20303;-78
2023/06/10 09:06:05;;;;;;;6.78;2.35;;;32.70;61.50;;;;;;5048036;28;20890;-78
2023/06/10 09:08:32;;;;;;;6.70;2.97;;;32.50;61.50;;;;;;5055676;23;20212;-95
2023/06/10 09:11:00;;;;;;;7.45;2.63;;;32.50;61.80;;;;;;5093353;28;20208;-94
2023/06/10 09:13:26;;;;;;;4.05;2.35;;;32.60;61.90;;;;;;5078347;28;20224;-94
2023/06/10 09:15:56;;;;;;;4.25;2.72;;;32.70;61.10;;;;;;5062171;28;20271;-95
2023/06/10 09:18:25;;;;;;;5.40;2.70;;;32.70;60.90;;;;;;5073421;28;20211;-96
2023/06/10 09:21:00;;;;;;;5.18;2.97;;;32.70;60.10;;;;;;5073265;28;20263;-96
2023/06/10 09:23:28;;;;;;;6.70;2.60;;;32.70;59.40;;;;;;5078579;28;20304;-96
2023/06/10 09:25:59;;;;;;;5.78;2.70;;;32.80;60.30;;;;;;5079526;28;20215;-96
2023/06/10 09:28:26;;;;;;;5.30;2.88;;;32.90;59.90;;;;;;5104676;28;20296;-96
2023/06/10 09:31:03;;;;;;;5.35;2.65;;;33.10;60.50;;;;;;5099734;28;21032;-96
2023/06/10 09:33:32;;;;;;;8.60;2.88;;;33.20;59.00;;;;;;5081605;28;20215;-96
2023/06/10 09:36:03;;;;;;;5.72;2.60;;;33.40;58.80;;;;;;5082809;28;20242;-96
2023/06/10 09:38:34;;;;;;;4.20;2.83;;;33.50;58.40;;;;;;5085340;28;20227;-96
2023/06/10 09:41:03;;;;;;;5.53;3.00;;;33.60;57.70;;;;;;5086250;28;20269;-96
2023/06/10 09:43:41;;;;;;;8.13;2.83;;;33.70;57.80;;;;;;5082379;28;20242;-96
2023/06/10 09:46:15;;;;;;;5.00;3.22;;;33.70;58.00;;;;;;5082262;28;20268;-96
2023/06/10 09:48:44;;;;;;;4.78;2.80;;;33.80;58.40;;;;;;5085530;28;20249;-96
2023/06/10 09:51:11;;;;;;;5.82;3.13;;;33.90;57.20;;;;;;5081722;28;20246;-96
2023/06/10 09:53:38;;;;;;;5.28;2.95;;;33.90;56.50;;;;;;5085768;28;20208;-96
2023/06/10 09:56:06;;;;;;;5.65;3.08;;;33.90;57.00;;;;;;5085167;28;20235;-95
2023/06/10 09:58:37;;;;;;;5.22;3.10;;;33.90;57.00;;;;;;5084524;28;20232;-95
2023/06/10 10:01:24;;;;;;;5.93;3.05;;;33.80;56.40;;;;;;5078263;28;20267;-96
2023/06/10 10:04:07;;;;;;;6.75;2.92;;;33.90;57.20;;;;;;5081405;28;20279;-96
2023/06/10 10:06:39;;;;;;;5.63;3.00;;;34.00;56.90;;;;;;5086812;28;20219;-96
2023/06/10 10:09:06;;;;;;;7.93;3.30;;;34.00;56.50;;;;;;5078411;28;20203;-96
2023/06/10 10:11:35;;;;;;;6.40;2.72;;;34.00;56.10;;;;;;5085170;28;20207;-96
2023/06/10 10:14:07;;;;;;;6.57;3.15;;;34.00;55.70;;;;;;5084816;28;20279;-96
2023/06/10 10:16:39;;;;;;;5.35;2.78;;;34.10;55.70;;;;;;5085719;28;20203;-96
2023/06/10 10:19:11;;;;;;;6.05;2.85;;;34.00;55.60;;;;;;5085897;28;20222;-96
2023/06/10 10:21:45;;;;;;;5.32;2.70;;;34.10;55.40;;;;;;5076849;23;20708;-80
2023/06/10 10:24:18;;;;;;;6.72;2.75;;;34.10;55.80;;;;;;5046829;28;20224;-80
2023/06/10 10:26:47;;;;;;;5.32;2.80;;;34.10;55.10;;;;;;5048312;28;20232;-79
2023/06/10 10:29:21;;;;;;;6.15;3.13;;;34.20;55.50;;;;;;5045123;28;20227;-79
2023/06/10 10:31:51;;;;;;;5.82;2.88;;;34.30;55.10;;;;;;5050274;28;20219;-79
2023/06/10 10:34:27;;;;;;;6.07;3.00;;;34.40;55.70;;;;;;5040551;28;20242;-79
2023/06/10 10:36:54;;;;;;;5.53;2.75;;;34.60;54.80;;;;;;5043203;28;20226;-79
2023/06/10 10:39:21;;;;;;;6.97;3.13;;;34.70;55.10;;;;;;5043183;28;20230;-79
2023/06/10 10:41:50;;;;;;;5.00;2.72;;;34.80;54.50;;;;;;5047247;28;20228;-79
2023/06/10 10:44:17;;;;;;;4.88;2.70;;;34.90;54.00;;;;;;5044581;28;20257;-79
2023/06/10 10:46:44;;;;;;;5.38;2.85;;;34.80;54.00;;;;;;5038548;28;20228;-77
2023/06/10 10:49:14;;;;;;;6.78;2.97;;;34.80;54.00;;;;;;5043582;28;20248;-79
2023/06/10 10:51:56;;;;;;;5.93;2.95;;;34.70;54.20;;;;;;5043627;28;20300;-79
2023/06/10 10:54:30;;;;;;;5.57;2.67;;;34.80;54.60;;;;;;5044462;28;20274;-77
2023/06/10 10:57:16;;;;;;;6.38;2.95;;;35.00;53.80;;;;;;5043095;28;20301;-78
2023/06/10 10:59:56;;;;;;;6.03;3.08;;;35.10;53.70;;;;;;5047815;28;20241;-79
2023/06/10 11:02:43;;;;;;;5.13;2.70;;;35.00;53.00;;;;;;5039766;28;20953;-79
2023/06/10 11:05:11;;;;;;;5.72;2.67;;;34.90;53.10;;;;;;5033718;28;20220;-79
2023/06/10 11:07:39;;;;;;;3.15;2.65;;;34.70;52.80;;;;;;5046515;28;20223;-79
2023/06/10 11:10:11;;;;;;;5.25;2.72;;;34.50;53.20;;;;;;5040433;28;20320;-79
2023/06/10 11:12:52;;;;;;;6.20;3.13;;;34.40;53.80;;;;;;5043470;28;20223;-79
2023/06/10 11:15:20;;;;;;;5.35;3.22;;;34.30;54.10;;;;;;5044973;28;20237;-79
2023/06/10 11:18:13;;;;;;;5.35;3.17;;;34.40;54.10;;;;;;5044964;28;20220;-79
2023/06/10 11:20:46;;;;;;;6.03;3.13;;;34.30;54.50;;;;;;5046302;28;20223;-79
2023/06/10 11:23:34;;;;;;;6.53;3.72;;;34.40;54.10;;;;;;5041070;28;20784;-81
2023/06/10 11:26:11;;;;;;;4.90;3.05;;;34.40;54.20;;;;;;5048767;28;20243;-78
2023/06/10 11:28:38;;;;;;;6.72;3.58;;;34.50;53.90;;;;;;5039150;28;20674;-79
2023/06/10 11:31:05;;;;;;;5.35;3.45;;;34.60;54.30;;;;;;5043852;28;20603;-80
2023/06/10 11:33:32;;;;;;;5.32;3.80;;;34.70;54.00;;;;;;5044490;28;20230;-80
2023/06/10 11:35:59;;;;;;;6.70;3.63;;;34.80;53.50;;;;;;5039361;28;20586;-80
2023/06/10 11:38:28;;;;;;;7.57;3.80;;;34.70;53.30;;;;;;5054559;28;20228;-80
2023/06/10 11:40:56;;;;;;;8.60;4.25;;;34.70;53.70;;;;;;5044557;28;20216;-80
2023/06/10 11:43:23;;;;;;;4.95;3.58;;;34.60;53.60;;;;;;5040330;28;20220;-81
2023/06/10 11:45:55;;;;;;;6.25;3.97;;;34.70;53.80;;;;;;5047994;28;20238;-81
2023/06/10 11:48:22;;;;;;;7.55;3.40;;;34.70;53.00;;;;;;5045861;28;20478;-81
2023/06/10 11:50:49;;;;;;;7.03;3.65;;;34.90;53.60;;;;;;5045233;28;20705;-81
2023/06/10 11:53:15;;;;;;;5.97;3.95;;;35.00;53.30;;;;;;5044307;28;20220;-81
2023/06/10 11:55:45;;;;;;;6.45;3.50;;;35.10;52.40;;;;;;5045750;28;20250;-81
2023/06/10 11:58:15;;;;;;;5.13;3.10;;;34.90;52.10;;;;;;5044289;28;20224;-81
2023/06/10 12:00:46;;;;;;;5.88;3.60;;;34.60;52.40;;;;;;5043051;28;20227;-81
2023/06/10 12:03:13;;;;;;;6.90;4.03;;;34.40;52.90;;;;;;5042225;28;20230;-81
2023/06/10 12:05:40;;;;;;;7.28;3.55;;;34.30;53.10;;;;;;5045171;28;20216;-81
2023/06/10 12:08:11;;;;;;;5.35;3.50;;;34.20;53.50;;;;;;5045470;28;20232;-81
2023/06/10 12:10:42;;;;;;;5.22;3.50;;;34.20;53.20;;;;;;5043032;28;20794;-81
2023/06/10 12:13:10;;;;;;;7.43;3.63;;;34.30;52.50;;;;;;5044728;28;20277;-81
2023/06/10 12:15:37;;;;;;;5.75;3.90;;;34.30;52.70;;;;;;5046049;28;20224;-81
2023/06/10 12:18:04;;;;;;;12.35;3.80;;;34.20;53.00;;;;;;5045038;28;20220;-81
2023/06/10 12:20:33;;;;;;;5.60;3.45;;;34.20;54.30;;;;;;5046483;28;20242;-81
2023/06/10 12:23:01;;;;;;;7.25;3.63;;;34.20;53.10;;;;;;5045851;28;20682;-81
2023/06/10 12:25:28;;;;;;;4.75;3.50;;;34.30;53.30;;;;;;5045761;28;20690;-81
2023/06/10 12:27:57;;;;;;;10.57;4.15;;;34.20;52.90;;;;;;5047901;28;20227;-81
2023/06/10 12:30:27;;;;;;;7.35;3.58;;;34.20;52.90;;;;;;5044386;28;20271;-81
2023/06/10 12:32:54;;;;;;;5.18;3.45;;;34.10;53.30;;;;;;5045909;28;20231;-81
2023/06/10 12:35:24;;;;;;;5.15;3.20;;;34.10;53.70;;;;;;5042894;28;20517;-81
2023/06/10 12:38:00;;;;;;;4.72;3.60;;;34.10;53.60;;;;;;5045335;28;20234;-80
2023/06/10 12:40:29;;;;;;;5.07;3.53;;;34.20;53.10;;;;;;5043966;28;20591;-81
2023/06/10 12:42:56;;;;;;;5.78;3.50;;;34.30;52.90;;;;;;5043735;28;20224;-81
2023/06/10 12:45:32;;;;;;;5.38;3.50;;;34.20;53.00;;;;;;5041766;28;20282;-80
2023/06/10 12:48:09;;;;;;;6.55;3.35;;;34.20;53.60;;;;;;5047289;28;20251;-81
2023/06/10 12:50:37;;;;;;;6.65;3.25;;;34.10;53.40;;;;;;5044808;28;20231;-81
2023/06/10 12:53:04;;;;;;;6.30;3.40;;;34.10;53.50;;;;;;5043844;28;20570;-81